Time;durP1;ratioP1;P1;durP2;ratioP2;P2;SDS_P1;SDS_P2;PMS_P1;PMS_P2;Temp;Humidity;BMP_temperature;BMP_pressure;BME280_temperature;BME280_humidity;BME280_pressure;Samples;Min_cycle;Max_cycle;Signal;HPM_P1;HPM_P2
2022/02/23 00:00:34;;;;;;;19.73;12.23;;;7.20;60.70;;;;;;5076595;28;20502;-81
2022/02/23 00:02:59;;;;;;;17.63;10.97;;;7.10;60.70;;;;;;5094551;28;20135;-68
2022/02/23 00:05:25;;;;;;;21.73;11.03;;;7.20;60.50;;;;;;5094022;28;20036;-68
2022/02/23 00:07:51;;;;;;;16.80;10.13;;;7.10;60.60;;;;;;5094468;28;20078;-82
2022/02/23 00:10:17;;;;;;;18.40;9.73;;;7.10;60.30;;;;;;5094422;28;20047;-69
2022/02/23 00:12:42;;;;;;;18.03;10.83;;;7.10;60.20;;;;;;5094426;28;20032;-68
2022/02/23 00:15:09;;;;;;;18.30;11.13;;;7.10;61.00;;;;;;5094324;28;20209;-69
2022/02/23 00:17:37;;;;;;;17.40;10.77;;;7.00;61.20;;;;;;5094249;28;20130;-69
2022/02/23 00:20:04;;;;;;;14.40;8.10;;;7.10;61.20;;;;;;5094160;28;20028;-69
2022/02/23 00:22:32;;;;;;;11.90;7.80;;;7.10;60.70;;;;;;5094338;28;20036;-69
2022/02/23 00:24:58;;;;;;;13.77;8.03;;;7.10;60.60;;;;;;5094241;28;20039;-68
2022/02/23 00:27:24;;;;;;;11.33;7.97;;;7.10;60.70;;;;;;5075972;28;20392;-71
2022/02/23 00:29:50;;;;;;;16.97;10.33;;;7.10;60.80;;;;;;5093930;28;20032;-69
2022/02/23 00:32:16;;;;;;;16.20;9.43;;;7.10;61.20;;;;;;5093834;28;20073;-69
2022/02/23 00:34:41;;;;;;;18.07;10.37;;;7.10;60.60;;;;;;5093860;28;20032;-70
2022/02/23 00:37:07;;;;;;;17.67;10.90;;;7.00;60.60;;;;;;5093787;28;20130;-68
2022/02/23 00:39:33;;;;;;;22.00;12.17;;;7.00;61.00;;;;;;5093882;28;20032;-82
2022/02/23 00:41:59;;;;;;;22.63;11.60;;;7.00;61.10;;;;;;5093736;28;20043;-81
2022/02/23 00:44:24;;;;;;;22.67;13.83;;;7.00;61.20;;;;;;5093607;28;20039;-81
2022/02/23 00:46:50;;;;;;;19.97;12.70;;;7.00;61.30;;;;;;5093774;28;20094;-69
2022/02/23 00:49:16;;;;;;;26.53;14.10;;;6.90;61.10;;;;;;5093706;28;20040;-81
2022/02/23 00:51:41;;;;;;;21.30;12.57;;;6.80;61.40;;;;;;5093635;28;20476;-81
2022/02/23 00:54:07;;;;;;;22.57;14.07;;;6.80;61.80;;;;;;5093475;28;20135;-81
2022/02/23 00:56:33;;;;;;;21.10;13.33;;;6.80;61.80;;;;;;5093157;28;20126;-68
2022/02/23 00:58:59;;;;;;;24.80;13.60;;;6.70;62.00;;;;;;5093262;28;20090;-69
2022/02/23 01:01:24;;;;;;;27.57;13.97;;;6.70;62.10;;;;;;5093506;28;20040;-79
2022/02/23 01:03:50;;;;;;;24.53;14.10;;;6.70;62.10;;;;;;5093089;28;20491;-68
2022/02/23 01:06:16;;;;;;;21.57;13.33;;;6.60;62.40;;;;;;5093625;28;20121;-80
2022/02/23 01:08:42;;;;;;;19.43;12.63;;;6.50;63.00;;;;;;5093383;28;20443;-69
2022/02/23 01:11:08;;;;;;;19.73;9.87;;;6.50;62.80;;;;;;5093058;28;20052;-78
2022/02/23 01:13:34;;;;;;;15.93;9.87;;;6.50;62.40;;;;;;5093257;28;20082;-69
2022/02/23 01:15:59;;;;;;;14.67;9.93;;;6.40;62.40;;;;;;5093105;28;20032;-69
2022/02/23 01:18:25;;;;;;;20.80;10.40;;;6.50;62.90;;;;;;5092945;28;20115;-69
2022/02/23 01:20:51;;;;;;;15.60;9.53;;;6.40;62.60;;;;;;5093418;28;20128;-69
2022/02/23 01:23:17;;;;;;;16.20;8.37;;;6.40;62.60;;;;;;5093363;28;20536;-69
2022/02/23 01:25:43;;;;;;;12.77;8.00;;;6.40;62.70;;;;;;5093174;28;20488;-69
2022/02/23 01:28:10;;;;;;;12.93;7.57;;;6.30;63.10;;;;;;5093270;28;20067;-81
2022/02/23 01:30:36;;;;;;;13.90;6.33;;;6.40;63.20;;;;;;5092662;28;20044;-69
2022/02/23 01:33:03;;;;;;;10.00;6.20;;;6.40;63.10;;;;;;5092853;28;20389;-68
2022/02/23 01:35:29;;;;;;;10.27;6.27;;;6.40;63.20;;;;;;5093382;28;20491;-69
2022/02/23 01:37:56;;;;;;;9.07;5.77;;;6.40;63.30;;;;;;5093199;28;20035;-69
2022/02/23 01:40:23;;;;;;;15.07;6.33;;;6.40;63.40;;;;;;5093100;28;20087;-75
2022/02/23 01:42:49;;;;;;;9.53;6.03;;;6.40;63.40;;;;;;5092979;28;20047;-69
2022/02/23 01:45:14;;;;;;;12.13;7.17;;;6.40;62.90;;;;;;5092813;28;20024;-69
2022/02/23 01:47:40;;;;;;;10.80;6.50;;;6.40;62.80;;;;;;5093070;28;20062;-69
2022/02/23 01:50:08;;;;;;;12.03;7.03;;;6.30;62.90;;;;;;5094473;28;20054;-69
2022/02/23 01:52:34;;;;;;;9.83;6.17;;;6.30;63.40;;;;;;5097351;28;20059;-69
2022/02/23 01:54:59;;;;;;;13.07;7.37;;;6.30;63.40;;;;;;5096869;28;20059;-69
2022/02/23 01:57:25;;;;;;;16.00;7.37;;;6.30;63.30;;;;;;5096871;28;20063;-69
2022/02/23 01:59:52;;;;;;;14.20;7.90;;;6.30;63.20;;;;;;5093770;28;20036;-72
2022/02/23 02:02:18;;;;;;;12.47;8.03;;;6.30;63.40;;;;;;5094142;28;20036;-70
2022/02/23 02:04:44;;;;;;;12.70;8.23;;;6.20;63.20;;;;;;5095518;28;20074;-69
2022/02/23 02:07:09;;;;;;;13.63;8.00;;;6.20;63.40;;;;;;5096362;28;20496;-82
2022/02/23 02:09:35;;;;;;;15.47;8.80;;;6.20;63.30;;;;;;5096246;28;20058;-77
2022/02/23 02:12:01;;;;;;;15.20;8.00;;;6.20;63.30;;;;;;5096439;28;20081;-69
2022/02/23 02:14:27;;;;;;;12.90;7.43;;;6.10;63.30;;;;;;5096271;28;20036;-80
2022/02/23 02:16:53;;;;;;;12.17;7.10;;;6.10;63.30;;;;;;5096258;28;20044;-70
2022/02/23 02:19:19;;;;;;;11.60;7.33;;;6.00;63.30;;;;;;5096266;28;20047;-70
2022/02/23 02:22:07;;;;;;;11.83;6.90;;;6.00;63.40;;;;;;5096659;28;20032;-81
2022/02/23 02:24:35;;;;;;;12.67;6.77;;;6.00;63.50;;;;;;5096203;28;20043;-70
2022/02/23 02:27:02;;;;;;;14.47;7.53;;;5.90;63.60;;;;;;5095536;28;20690;-69
2022/02/23 02:29:29;;;;;;;11.80;7.47;;;5.90;63.90;;;;;;5096014;28;20115;-69
2022/02/23 02:31:54;;;;;;;11.40;6.80;;;5.90;64.30;;;;;;5096078;28;20040;-80
2022/02/23 02:34:21;;;;;;;11.93;6.70;;;5.80;64.50;;;;;;5096244;28;20062;-67
2022/02/23 02:36:50;;;;;;;10.80;6.53;;;5.70;64.70;;;;;;5096221;28;20032;-75
2022/02/23 02:39:20;;;;;;;11.70;6.50;;;5.70;65.30;;;;;;5096340;28;20391;-67
2022/02/23 02:41:46;;;;;;;10.67;5.90;;;5.70;65.10;;;;;;5095988;28;20506;-70
2022/02/23 02:44:13;;;;;;;7.90;5.13;;;5.70;65.00;;;;;;5095413;28;20151;-66
2022/02/23 02:46:39;;;;;;;8.83;5.30;;;5.70;64.90;;;;;;5096458;28;20385;-66
2022/02/23 02:49:06;;;;;;;8.33;4.57;;;5.70;64.70;;;;;;5096072;28;20028;-72
2022/02/23 02:51:32;;;;;;;10.33;5.57;;;5.60;64.70;;;;;;5095630;28;20040;-68
2022/02/23 02:53:57;;;;;;;12.40;5.60;;;5.70;64.60;;;;;;5095866;28;20490;-74
2022/02/23 02:56:23;;;;;;;12.70;6.07;;;5.60;64.20;;;;;;5095457;28;20090;-77
2022/02/23 02:58:52;;;;;;;15.17;5.67;;;5.60;65.00;;;;;;5093510;28;20357;-67
2022/02/23 03:01:29;;;;;;;12.57;6.67;;;5.60;64.50;;;;;;5094835;28;20099;-67
2022/02/23 03:03:55;;;;;;;21.37;7.10;;;5.60;64.20;;;;;;5095711;28;20496;-67
2022/02/23 03:06:21;;;;;;;12.93;5.37;;;5.60;64.30;;;;;;5095738;28;20038;-80
2022/02/23 03:08:49;;;;;;;10.10;5.20;;;5.60;64.30;;;;;;5095644;28;20130;-67
2022/02/23 03:11:15;;;;;;;7.50;4.60;;;5.50;64.40;;;;;;5095323;28;20044;-67
2022/02/23 03:13:41;;;;;;;10.20;4.67;;;5.60;64.50;;;;;;5095574;28;20427;-72
2022/02/23 03:16:08;;;;;;;11.30;4.10;;;5.50;64.20;;;;;;5095558;28;20412;-68
2022/02/23 03:18:34;;;;;;;8.13;4.10;;;5.50;64.50;;;;;;5095816;28;20036;-68
2022/02/23 03:21:01;;;;;;;11.57;4.37;;;5.50;64.40;;;;;;5095511;28;20028;-80
2022/02/23 03:23:27;;;;;;;8.40;3.50;;;5.50;64.50;;;;;;5095507;28;20083;-68
2022/02/23 03:25:53;;;;;;;7.63;3.07;;;5.50;64.90;;;;;;5095671;28;20115;-81
2022/02/23 03:28:19;;;;;;;7.90;3.27;;;5.40;65.40;;;;;;5095334;28;20540;-68
2022/02/23 03:30:45;;;;;;;4.97;2.93;;;5.40;65.70;;;;;;5095255;28;20049;-70
2022/02/23 03:33:11;;;;;;;5.33;2.60;;;5.40;65.20;;;;;;5095457;28;20154;-69
2022/02/23 03:35:37;;;;;;;7.67;2.73;;;5.40;65.90;;;;;;5094982;28;20450;-78
2022/02/23 03:38:04;;;;;;;4.00;2.40;;;5.40;65.80;;;;;;5095135;28;20032;-69
2022/02/23 03:40:30;;;;;;;4.63;2.40;;;5.40;65.80;;;;;;5092006;28;20036;-68
2022/02/23 03:42:55;;;;;;;7.20;3.20;;;5.40;65.60;;;;;;5092306;28;20032;-69
2022/02/23 03:45:21;;;;;;;16.97;5.23;;;5.40;65.70;;;;;;5093043;28;20511;-69
2022/02/23 03:47:47;;;;;;;8.03;3.63;;;5.50;65.70;;;;;;5094699;28;20032;-68
2022/02/23 03:50:14;;;;;;;9.60;3.40;;;5.40;65.50;;;;;;5094838;28;20047;-78
2022/02/23 03:52:40;;;;;;;6.33;2.97;;;5.40;65.50;;;;;;5094715;28;20043;-78
2022/02/23 03:55:08;;;;;;;7.27;3.03;;;5.50;65.60;;;;;;5094757;28;20110;-68
2022/02/23 03:57:34;;;;;;;5.53;2.67;;;5.40;65.70;;;;;;5094478;28;20103;-80
2022/02/23 03:59:59;;;;;;;8.30;2.80;;;5.40;65.50;;;;;;5094592;28;20111;-80
2022/02/23 04:02:25;;;;;;;7.13;3.00;;;5.40;65.50;;;;;;5091629;28;20040;-69
2022/02/23 04:04:51;;;;;;;11.13;3.00;;;5.40;65.40;;;;;;5091802;28;20555;-68
2022/02/23 04:07:17;;;;;;;9.90;3.57;;;5.40;65.20;;;;;;5092671;28;20035;-80
2022/02/23 04:09:43;;;;;;;6.43;3.77;;;5.40;64.90;;;;;;5094395;28;20492;-68
2022/02/23 04:12:09;;;;;;;13.47;4.47;;;5.40;64.60;;;;;;5094104;28;20044;-78
2022/02/23 04:14:36;;;;;;;11.23;3.77;;;5.30;64.60;;;;;;5094239;28;20032;-68
2022/02/23 04:17:03;;;;;;;15.70;4.23;;;5.30;64.90;;;;;;5094776;28;20071;-80
2022/02/23 04:19:28;;;;;;;14.27;4.10;;;5.20;65.10;;;;;;5094366;28;20111;-68
2022/02/23 04:21:54;;;;;;;14.30;4.50;;;5.20;65.40;;;;;;5094463;28;20499;-67
2022/02/23 04:24:20;;;;;;;16.80;4.23;;;5.10;65.30;;;;;;5094333;28;20055;-68
2022/02/23 04:26:45;;;;;;;11.87;5.43;;;5.10;65.30;;;;;;5094049;28;20033;-68
2022/02/23 04:29:11;;;;;;;14.47;5.03;;;5.10;65.30;;;;;;5094263;28;20028;-79
2022/02/23 04:31:37;;;;;;;11.37;5.43;;;5.00;65.30;;;;;;5093839;28;20056;-68
2022/02/23 04:34:03;;;;;;;13.83;4.90;;;5.00;65.40;;;;;;5094215;28;20032;-68
2022/02/23 04:36:29;;;;;;;15.90;4.80;;;5.00;65.40;;;;;;5094347;28;20063;-68
2022/02/23 04:38:54;;;;;;;8.60;4.33;;;5.00;65.70;;;;;;5094129;28;20113;-68
2022/02/23 04:41:21;;;;;;;8.70;4.77;;;4.90;65.80;;;;;;5093879;28;20035;-69
2022/02/23 04:43:46;;;;;;;7.43;4.20;;;4.90;66.10;;;;;;5093935;28;20032;-67
2022/02/23 04:46:12;;;;;;;9.73;4.80;;;4.80;66.30;;;;;;5093884;28;20031;-67
2022/02/23 04:48:44;;;;;;;9.50;4.90;;;4.90;66.10;;;;;;5093669;28;20040;-68
2022/02/23 04:51:10;;;;;;;19.53;5.10;;;4.80;66.00;;;;;;5093962;28;20439;-68
2022/02/23 04:53:36;;;;;;;12.57;4.80;;;4.80;66.00;;;;;;5093693;28;20115;-68
2022/02/23 04:56:06;;;;;;;10.40;4.70;;;4.80;66.60;;;;;;5093402;28;20464;-68
2022/02/23 04:58:32;;;;;;;14.20;4.83;;;4.70;67.30;;;;;;5093364;28;20028;-79
2022/02/23 05:00:58;;;;;;;9.90;5.30;;;4.70;67.20;;;;;;5093634;28;20050;-68
2022/02/23 05:03:24;;;;;;;15.30;4.50;;;4.70;67.00;;;;;;5093648;28;20032;-67
2022/02/23 05:05:50;;;;;;;11.43;4.90;;;4.70;66.90;;;;;;5093288;28;20043;-68
2022/02/23 05:08:17;;;;;;;18.40;4.50;;;4.60;67.00;;;;;;5093344;28;20028;-68
2022/02/23 05:10:46;;;;;;;16.27;5.00;;;4.70;67.10;;;;;;5092878;28;20048;-68
2022/02/23 05:13:13;;;;;;;18.60;4.60;;;4.60;67.10;;;;;;5093662;28;20442;-68
2022/02/23 05:15:39;;;;;;;7.57;3.70;;;4.60;67.20;;;;;;5093218;28;20039;-68
2022/02/23 05:18:06;;;;;;;11.03;4.17;;;4.60;67.30;;;;;;5093042;28;20051;-69
2022/02/23 05:20:33;;;;;;;6.57;3.27;;;4.60;67.60;;;;;;5093057;28;20389;-81
2022/02/23 05:22:59;;;;;;;9.70;3.10;;;4.60;68.30;;;;;;5093123;28;20039;-69
2022/02/23 05:25:25;;;;;;;4.77;2.70;;;4.60;68.20;;;;;;5092545;28;20032;-69
2022/02/23 05:27:51;;;;;;;6.63;2.23;;;4.70;68.10;;;;;;5093190;28;20028;-68
2022/02/23 05:30:17;;;;;;;4.93;2.27;;;4.70;68.10;;;;;;5093068;28;20063;-69
2022/02/23 05:32:43;;;;;;;6.97;2.50;;;4.70;68.30;;;;;;5092860;28;20031;-68
2022/02/23 05:35:09;;;;;;;11.30;4.10;;;4.80;68.20;;;;;;5093045;28;20039;-68
2022/02/23 05:37:35;;;;;;;8.90;3.80;;;4.90;67.60;;;;;;5093169;28;20032;-69
2022/02/23 05:40:03;;;;;;;7.43;4.03;;;4.90;67.10;;;;;;5092897;28;20111;-69
2022/02/23 05:42:28;;;;;;;11.87;4.23;;;4.80;66.40;;;;;;5092779;28;20032;-81
2022/02/23 05:44:54;;;;;;;18.13;4.40;;;4.80;66.50;;;;;;5092891;28;20108;-69
2022/02/23 05:47:20;;;;;;;21.00;5.70;;;4.70;66.10;;;;;;5093083;28;20051;-68
2022/02/23 05:49:46;;;;;;;9.50;3.97;;;4.60;67.10;;;;;;5092942;28;20111;-71
2022/02/23 05:52:16;;;;;;;12.90;4.50;;;4.50;66.80;;;;;;5092660;28;20143;-77
2022/02/23 05:54:43;;;;;;;10.53;4.70;;;4.50;66.80;;;;;;5092408;28;20039;-68
2022/02/23 05:57:08;;;;;;;9.37;4.13;;;4.50;66.80;;;;;;5092946;28;20043;-77
2022/02/23 05:59:34;;;;;;;11.73;5.10;;;4.50;66.90;;;;;;5092822;28;20036;-68
2022/02/23 06:02:00;;;;;;;13.00;5.70;;;4.40;67.10;;;;;;5092664;28;20032;-68
2022/02/23 06:04:26;;;;;;;11.93;5.10;;;4.40;67.10;;;;;;5092944;28;20036;-73
2022/02/23 06:06:52;;;;;;;11.67;4.90;;;4.40;66.80;;;;;;5092362;28;20082;-79
2022/02/23 06:09:17;;;;;;;10.80;5.13;;;4.30;67.10;;;;;;5092631;28;20469;-68
2022/02/23 06:11:43;;;;;;;12.90;5.13;;;4.40;67.40;;;;;;5092924;28;20115;-68
2022/02/23 06:14:10;;;;;;;15.50;5.00;;;4.30;67.30;;;;;;5094082;28;20032;-81
2022/02/23 06:16:36;;;;;;;16.83;4.97;;;4.30;67.60;;;;;;5092720;28;20101;-69
2022/02/23 06:19:02;;;;;;;14.83;5.33;;;4.30;67.60;;;;;;5092606;28;20047;-68
2022/02/23 06:21:27;;;;;;;15.27;5.20;;;4.30;67.40;;;;;;5092356;28;20032;-68
2022/02/23 06:23:53;;;;;;;10.90;5.23;;;4.30;67.10;;;;;;5091263;28;20032;-68
2022/02/23 06:26:19;;;;;;;14.07;5.80;;;4.20;67.40;;;;;;5092196;28;20420;-68
2022/02/23 06:28:46;;;;;;;14.97;5.60;;;4.20;67.90;;;;;;5092117;28;20514;-69
2022/02/23 06:31:12;;;;;;;10.23;4.73;;;4.20;68.70;;;;;;5091940;28;20131;-82
2022/02/23 06:33:42;;;;;;;17.23;5.03;;;4.20;68.70;;;;;;5092291;28;20064;-80
2022/02/23 06:36:08;;;;;;;9.83;5.73;;;4.20;69.00;;;;;;5091873;28;20097;-69
2022/02/23 06:38:36;;;;;;;12.73;5.80;;;4.30;69.20;;;;;;5093504;28;20039;-75
2022/02/23 06:41:03;;;;;;;20.70;7.67;;;4.40;69.10;;;;;;5096148;28;20055;-69
2022/02/23 06:43:29;;;;;;;10.93;5.93;;;4.40;68.50;;;;;;5095894;28;20032;-69
2022/02/23 06:45:56;;;;;;;10.57;5.43;;;4.50;68.40;;;;;;5095958;28;20039;-69
2022/02/23 06:48:22;;;;;;;10.73;5.57;;;4.50;68.30;;;;;;5095870;28;20392;-79
2022/02/23 06:50:48;;;;;;;12.97;5.13;;;4.60;68.40;;;;;;5095787;28;20089;-69
2022/02/23 06:53:15;;;;;;;18.07;5.33;;;4.60;68.30;;;;;;5095633;28;20028;-80
2022/02/23 06:55:42;;;;;;;25.07;6.13;;;4.60;68.80;;;;;;5095794;28;20485;-77
2022/02/23 06:58:09;;;;;;;22.40;6.90;;;4.70;68.80;;;;;;5094578;28;20032;-74
2022/02/23 07:00:36;;;;;;;25.23;6.53;;;4.70;68.70;;;;;;5095514;28;20523;-68
2022/02/23 07:03:02;;;;;;;17.73;6.30;;;4.70;68.90;;;;;;5095440;28;20036;-70
2022/02/23 07:05:28;;;;;;;17.87;5.97;;;4.80;68.50;;;;;;5094914;28;20036;-76
2022/02/23 07:07:53;;;;;;;16.77;5.70;;;4.90;68.30;;;;;;5095723;28;20039;-72
2022/02/23 07:10:23;;;;;;;22.10;6.03;;;4.90;68.70;;;;;;5095214;28;20052;-71
2022/02/23 07:12:49;;;;;;;16.00;5.83;;;5.00;69.00;;;;;;5095443;28;20131;-73
2022/02/23 07:15:16;;;;;;;9.07;5.50;;;5.00;69.20;;;;;;5095017;28;20036;-69
2022/02/23 07:17:42;;;;;;;11.90;5.37;;;5.10;69.00;;;;;;5095006;28;20268;-70
2022/02/23 07:20:09;;;;;;;15.10;5.60;;;5.20;69.20;;;;;;5094316;28;20525;-69
2022/02/23 07:22:36;;;;;;;19.27;5.80;;;5.20;69.60;;;;;;5094609;28;20051;-69
2022/02/23 07:25:03;;;;;;;19.23;6.67;;;5.30;69.40;;;;;;5094710;28;20036;-69
2022/02/23 07:27:29;;;;;;;19.53;8.03;;;5.40;69.10;;;;;;5094406;28;20115;-72
2022/02/23 07:29:54;;;;;;;21.30;9.83;;;5.60;68.60;;;;;;5094788;28;20056;-71
2022/02/23 07:32:22;;;;;;;22.97;9.43;;;5.70;68.60;;;;;;5095437;28;20043;-69
2022/02/23 07:34:50;;;;;;;25.30;10.30;;;5.80;68.60;;;;;;5095314;28;20040;-66
2022/02/23 07:37:16;;;;;;;30.53;10.37;;;5.80;68.20;;;;;;5095206;28;20048;-65
2022/02/23 07:39:43;;;;;;;28.27;10.90;;;5.90;68.40;;;;;;5094657;28;20119;-65
2022/02/23 07:42:09;;;;;;;31.00;11.73;;;6.00;68.10;;;;;;5095194;28;20431;-65
2022/02/23 07:44:36;;;;;;;34.67;11.07;;;6.10;68.10;;;;;;5094653;28;20090;-67
2022/02/23 07:47:02;;;;;;;40.77;11.77;;;6.10;67.90;;;;;;5093555;28;20062;-68
2022/02/23 07:49:28;;;;;;;33.30;11.30;;;6.30;67.60;;;;;;5094103;28;20114;-67
2022/02/23 07:51:54;;;;;;;27.23;8.87;;;6.30;67.30;;;;;;5094883;28;20087;-68
2022/02/23 07:54:20;;;;;;;22.53;8.37;;;6.40;67.00;;;;;;5094534;28;20039;-67
2022/02/23 07:56:46;;;;;;;24.03;10.23;;;6.50;66.60;;;;;;5094565;28;20040;-68
2022/02/23 07:59:12;;;;;;;27.07;8.83;;;6.60;66.50;;;;;;5094706;28;20464;-70
2022/02/23 08:01:38;;;;;;;20.83;8.37;;;6.70;67.10;;;;;;5094345;28;20111;-67
2022/02/23 08:04:05;;;;;;;20.70;8.70;;;6.70;67.00;;;;;;5094574;28;20036;-67
2022/02/23 08:06:32;;;;;;;22.90;8.77;;;6.80;66.60;;;;;;5094473;28;20040;-70
2022/02/23 08:08:59;;;;;;;21.33;9.23;;;6.90;66.10;;;;;;5094376;28;20042;-73
2022/02/23 08:11:25;;;;;;;21.10;8.40;;;7.00;66.50;;;;;;5094299;28;20051;-66
2022/02/23 08:13:58;;;;;;;16.03;7.57;;;7.00;66.50;;;;;;5094696;28;20588;-67
2022/02/23 08:21:57;;;;;;;17.23;7.40;;;7.30;65.80;;;;;;5094636;28;20036;-65
2022/02/23 08:24:23;;;;;;;23.73;7.60;;;7.40;65.50;;;;;;5094177;28;20028;-65
2022/02/23 08:26:49;;;;;;;19.00;7.47;;;7.40;65.80;;;;;;5093777;28;20483;-65
2022/02/23 08:29:14;;;;;;;29.00;7.47;;;7.50;65.70;;;;;;5093939;28;20068;-65
2022/02/23 08:31:40;;;;;;;26.57;8.13;;;7.60;65.80;;;;;;5093642;28;20046;-68
2022/02/23 08:34:06;;;;;;;22.90;7.80;;;7.70;65.60;;;;;;5093752;28;20024;-65
2022/02/23 08:36:32;;;;;;;18.97;5.73;;;7.80;65.20;;;;;;5094211;28;20032;-71
2022/02/23 08:38:57;;;;;;;17.07;5.40;;;7.80;65.10;;;;;;5092705;28;20070;-65
2022/02/23 08:41:24;;;;;;;9.70;4.87;;;7.90;64.70;;;;;;5094017;28;20036;-70
2022/02/23 08:43:50;;;;;;;13.10;5.23;;;7.90;64.20;;;;;;5093847;28;20047;-66
2022/02/23 08:46:16;;;;;;;8.57;4.97;;;8.00;64.20;;;;;;5093931;28;20035;-65
2022/02/23 08:48:42;;;;;;;17.40;4.83;;;8.10;64.30;;;;;;5093980;28;20028;-65
2022/02/23 08:51:08;;;;;;;11.77;5.13;;;8.20;64.20;;;;;;5093859;28;20047;-65
2022/02/23 08:53:34;;;;;;;19.23;5.70;;;8.20;63.80;;;;;;5093709;28;20063;-65
2022/02/23 08:56:00;;;;;;;15.47;6.00;;;8.30;63.50;;;;;;5093602;28;20400;-72
2022/02/23 08:58:25;;;;;;;18.53;5.83;;;8.40;63.40;;;;;;5093641;28;20040;-64
2022/02/23 09:00:51;;;;;;;9.70;5.57;;;8.50;63.30;;;;;;5093600;28;20032;-64
2022/02/23 09:03:22;;;;;;;12.07;5.47;;;8.50;63.20;;;;;;5093732;28;20051;-64
2022/02/23 09:05:48;;;;;;;12.77;5.33;;;8.60;63.10;;;;;;5093571;28;20040;-64
2022/02/23 09:08:15;;;;;;;12.10;4.83;;;8.70;63.00;;;;;;5093852;28;20424;-71
2022/02/23 09:10:41;;;;;;;12.17;4.50;;;8.80;63.20;;;;;;5093113;28;20050;-64
2022/02/23 09:13:10;;;;;;;12.53;4.53;;;8.80;63.20;;;;;;5093841;28;20091;-64
2022/02/23 09:15:35;;;;;;;12.83;4.73;;;8.90;62.90;;;;;;5093443;28;20504;-71
2022/02/23 09:18:02;;;;;;;13.67;5.03;;;9.00;62.90;;;;;;5093446;28;20028;-71
2022/02/23 09:20:28;;;;;;;13.40;4.80;;;9.10;63.00;;;;;;5092971;28;20111;-70
2022/02/23 09:22:54;;;;;;;10.90;5.17;;;9.20;62.90;;;;;;5093090;28;20415;-64
2022/02/23 09:25:21;;;;;;;14.27;5.50;;;9.30;62.30;;;;;;5092915;28;20132;-71
2022/02/23 09:27:47;;;;;;;11.03;5.03;;;9.30;62.00;;;;;;5093029;28;20138;-64
2022/02/23 09:30:14;;;;;;;8.67;3.80;;;9.40;61.90;;;;;;5092123;28;20048;-64
2022/02/23 09:32:42;;;;;;;12.97;4.47;;;9.50;61.80;;;;;;5092421;28;20030;-63
2022/02/23 09:35:09;;;;;;;16.10;4.73;;;9.60;61.70;;;;;;5093179;28;20090;-64
2022/02/23 09:37:35;;;;;;;9.50;4.27;;;9.70;62.10;;;;;;5092863;28;20040;-64
2022/02/23 09:40:02;;;;;;;15.87;5.30;;;9.80;62.20;;;;;;5092781;28;20040;-64
2022/02/23 09:42:29;;;;;;;8.73;4.43;;;9.90;62.50;;;;;;5092747;28;20040;-64
2022/02/23 09:44:59;;;;;;;11.90;4.23;;;9.90;61.80;;;;;;5093048;28;20127;-64
2022/02/23 09:47:29;;;;;;;9.87;4.13;;;10.00;60.20;;;;;;5093263;28;20039;-64
2022/02/23 09:49:55;;;;;;;6.97;3.20;;;10.00;60.00;;;;;;5092936;28;20028;-64
2022/02/23 09:52:24;;;;;;;7.60;3.53;;;10.10;60.30;;;;;;5092785;28;20032;-64
2022/02/23 09:54:51;;;;;;;6.57;3.50;;;10.20;59.70;;;;;;5092329;28;20035;-64
2022/02/23 09:57:18;;;;;;;7.93;3.33;;;10.30;59.20;;;;;;5092809;28;20036;-65
2022/02/23 09:59:44;;;;;;;8.53;3.87;;;10.40;58.70;;;;;;5092743;28;20043;-64
2022/02/23 10:02:11;;;;;;;4.57;2.90;;;10.40;58.10;;;;;;5092765;28;20033;-65
2022/02/23 10:04:37;;;;;;;5.70;2.40;;;10.50;57.50;;;;;;5092430;28;20032;-64
2022/02/23 10:07:06;;;;;;;9.07;2.20;;;10.60;56.90;;;;;;5092685;28;20498;-65
2022/02/23 10:09:49;;;;;;;11.07;2.40;;;10.70;56.00;;;;;;5092521;28;20036;-64
2022/02/23 10:12:19;;;;;;;6.30;2.40;;;10.80;55.90;;;;;;5096276;28;20055;-64
2022/02/23 10:14:46;;;;;;;6.53;2.50;;;10.80;53.90;;;;;;5096741;28;20108;-63
2022/02/23 10:17:12;;;;;;;4.10;2.00;;;10.90;53.30;;;;;;5096393;28;20036;-64
2022/02/23 10:19:51;;;;;;;6.70;2.50;;;11.00;53.30;;;;;;5096450;28;20098;-63
2022/02/23 10:22:22;;;;;;;8.05;2.65;;;11.00;53.70;;;;;;5096637;28;20468;-64
2022/02/23 10:24:48;;;;;;;5.83;2.07;;;11.10;53.90;;;;;;5096260;28;20131;-64
2022/02/23 10:27:17;;;;;;;3.03;1.55;;;11.20;53.90;;;;;;5096349;28;20107;-64
2022/02/23 10:29:51;;;;;;;5.57;1.63;;;11.30;54.10;;;;;;5096193;28;20492;-64
2022/02/23 10:32:17;;;;;;;3.53;1.38;;;11.40;53.40;;;;;;5096392;28;20063;-64
2022/02/23 10:34:45;;;;;;;4.60;1.38;;;11.50;52.70;;;;;;5096214;28;20043;-71
2022/02/23 10:37:13;;;;;;;2.47;1.30;;;11.50;51.90;;;;;;5096387;28;20032;-71
2022/02/23 10:40:00;;;;;;;2.83;1.42;;;11.60;51.00;;;;;;5096474;28;20082;-64
2022/02/23 10:42:32;;;;;;;2.50;1.00;;;11.70;51.10;;;;;;5096282;28;20412;-68
2022/02/23 10:44:59;;;;;;;4.40;1.30;;;11.80;50.70;;;;;;5096076;28;20039;-63
2022/02/23 10:47:29;;;;;;;1.95;1.30;;;11.80;49.30;;;;;;5095995;28;20473;-63
2022/02/23 10:50:07;;;;;;;7.38;3.78;;;11.90;49.30;;;;;;5096230;28;20036;-64
2022/02/23 10:52:36;;;;;;;7.18;3.15;;;12.00;48.60;;;;;;5096279;28;20032;-72
2022/02/23 10:55:19;;;;;;;3.45;1.45;;;12.00;48.90;;;;;;5096074;28;20036;-64
2022/02/23 10:57:48;;;;;;;1.90;0.98;;;12.10;48.60;;;;;;5095725;28;20040;-64
2022/02/23 11:00:35;;;;;;;1.45;0.80;;;12.20;47.90;;;;;;5095719;28;20031;-65
2022/02/23 11:03:02;;;;;;;4.07;1.65;;;12.30;47.40;;;;;;5095991;28;20078;-70
2022/02/23 11:05:30;;;;;;;3.20;1.30;;;12.40;48.40;;;;;;5095642;28;20032;-64
2022/02/23 11:07:59;;;;;;;2.30;1.13;;;12.40;46.70;;;;;;5095806;28;20059;-72
2022/02/23 11:10:26;;;;;;;2.00;1.10;;;12.50;46.60;;;;;;5095907;28;20418;-73
2022/02/23 11:12:54;;;;;;;4.00;1.10;;;12.60;46.30;;;;;;5095690;28;20492;-65
2022/02/23 11:15:22;;;;;;;3.30;1.00;;;12.70;46.30;;;;;;5095699;28;20028;-64
2022/02/23 11:17:50;;;;;;;2.15;1.00;;;12.80;45.60;;;;;;5094961;28;20028;-65
2022/02/23 11:20:21;;;;;;;3.78;1.27;;;12.80;46.10;;;;;;5094797;28;20032;-64
2022/02/23 11:22:59;;;;;;;1.98;1.20;;;12.90;44.90;;;;;;5094374;28;20028;-64
2022/02/23 11:25:26;;;;;;;2.38;0.93;;;13.00;43.60;;;;;;5094920;28;20111;-64
2022/02/23 11:28:02;;;;;;;2.05;1.00;;;13.10;44.30;;;;;;5095067;28;20032;-77
2022/02/23 11:30:29;;;;;;;1.67;1.05;;;13.20;44.10;;;;;;5094880;28;20051;-64
2022/02/23 11:32:55;;;;;;;2.72;1.20;;;13.30;44.70;;;;;;5094633;28;20086;-70
2022/02/23 11:35:46;;;;;;;2.40;1.10;;;13.30;44.20;;;;;;5094744;28;20039;-70
2022/02/23 11:38:17;;;;;;;2.70;1.10;;;13.40;45.40;;;;;;5095153;28;20079;-68
2022/02/23 11:40:48;;;;;;;1.88;0.85;;;13.50;45.50;;;;;;5094472;28;20028;-65
2022/02/23 11:43:41;;;;;;;2.15;1.05;;;13.50;45.70;;;;;;5094483;28;20039;-65
2022/02/23 11:46:09;;;;;;;1.60;0.95;;;13.60;43.60;;;;;;5094290;28;20119;-65
2022/02/23 11:48:58;;;;;;;6.15;1.30;;;13.70;43.00;;;;;;5094531;28;20387;-68
2022/02/23 11:51:44;;;;;;;1.85;0.80;;;13.80;44.50;;;;;;5094206;28;20059;-70
2022/02/23 11:54:12;;;;;;;1.55;0.98;;;13.80;43.90;;;;;;5094339;28;20528;-74
2022/02/23 11:56:49;;;;;;;1.90;0.85;;;13.80;43.70;;;;;;5094494;28;20032;-64
2022/02/23 11:59:46;;;;;;;1.27;0.82;;;13.90;41.30;;;;;;5093744;28;20032;-64
2022/02/23 12:02:13;;;;;;;1.38;0.93;;;14.00;41.30;;;;;;5094827;28;20029;-68
2022/02/23 12:04:47;;;;;;;3.20;1.00;;;14.00;40.90;;;;;;5095070;28;20067;-64
2022/02/23 12:07:14;;;;;;;6.22;0.95;;;14.00;40.30;;;;;;5095124;28;20036;-64
2022/02/23 12:10:03;;;;;;;1.58;1.00;;;14.10;39.10;;;;;;5094597;28;20040;-64
2022/02/23 12:12:41;;;;;;;1.58;1.02;;;14.20;39.20;;;;;;5081035;28;20044;-65
2022/02/23 12:15:11;;;;;;;1.23;0.90;;;14.20;40.00;;;;;;5093702;28;20448;-64
2022/02/23 12:17:43;;;;;;;3.67;0.80;;;14.20;40.10;;;;;;5092949;28;20040;-73
2022/02/23 12:20:37;;;;;;;1.65;0.85;;;14.30;39.70;;;;;;5092108;28;20476;-64
2022/02/23 12:23:09;;;;;;;2.42;1.00;;;14.40;39.90;;;;;;5092217;28;20135;-64
2022/02/23 12:25:56;;;;;;;2.67;1.37;;;14.50;40.40;;;;;;5092161;28;20437;-64
2022/02/23 12:28:24;;;;;;;1.50;0.90;;;14.60;40.20;;;;;;5092491;28;20394;-64
2022/02/23 12:31:01;;;;;;;1.25;0.80;;;14.60;39.40;;;;;;5093368;28;20473;-74
2022/02/23 12:33:27;;;;;;;5.15;1.27;;;14.70;38.60;;;;;;5093391;28;20396;-64
2022/02/23 12:35:54;;;;;;;2.53;1.13;;;14.70;37.90;;;;;;5093765;28;20036;-64
2022/02/23 12:38:29;;;;;;;4.25;1.20;;;14.80;39.10;;;;;;5093518;28;20032;-64
2022/02/23 12:41:00;;;;;;;12.00;1.65;;;14.90;39.20;;;;;;5093989;28;20490;-68
2022/02/23 12:43:28;;;;;;;6.95;1.00;;;14.90;40.10;;;;;;5093759;28;20038;-68
2022/02/23 12:45:58;;;;;;;2.50;1.13;;;15.10;40.60;;;;;;5093706;28;20047;-66
2022/02/23 12:48:25;;;;;;;8.70;1.17;;;15.10;39.20;;;;;;5093901;28;20362;-72
2022/02/23 12:51:01;;;;;;;2.35;1.00;;;15.20;37.90;;;;;;5093727;28;20133;-73
2022/02/23 12:53:42;;;;;;;1.65;1.05;;;15.30;38.50;;;;;;5093508;28;20060;-63
2022/02/23 12:56:26;;;;;;;3.55;1.15;;;15.30;38.20;;;;;;5094083;28;20086;-64